createdAt,value
2018-01-27T00:00:58.276Z,100.00
2018-01-27T00:03:26.215Z,100.00
2018-01-27T00:05:53.996Z,100.00
2018-01-27T00:08:21.933Z,100.00
2018-01-27T00:10:49.895Z,100.00
2018-01-27T00:13:17.796Z,100.00
2018-01-27T00:15:45.719Z,100.00
2018-01-27T00:18:13.536Z,100.00
2018-01-27T00:20:41.486Z,100.00
2018-01-27T00:23:09.389Z,100.00
2018-01-27T00:25:37.259Z,100.00
2018-01-27T00:28:05.171Z,100.00
2018-01-27T00:30:33.058Z,100.00
2018-01-27T00:33:01.905Z,100.00
2018-01-27T00:35:29.826Z,100.00
2018-01-27T00:37:57.737Z,100.00
2018-01-27T00:40:25.611Z,100.00
2018-01-27T00:42:53.552Z,100.00
2018-01-27T00:45:21.478Z,100.00
2018-01-27T00:47:49.446Z,100.00
2018-01-27T00:50:17.307Z,100.00
2018-01-27T00:52:45.249Z,100.00
2018-01-27T00:55:13.120Z,100.00
2018-01-27T00:57:40.947Z,100.00
2018-01-27T01:00:08.895Z,100.00
2018-01-27T01:02:36.852Z,100.00
2018-01-27T01:05:04.853Z,100.00
2018-01-27T01:07:32.730Z,100.00
2018-01-27T01:10:00.547Z,100.00
2018-01-27T01:12:28.403Z,100.00
2018-01-27T01:14:56.329Z,100.00
2018-01-27T01:17:24.192Z,100.00
2018-01-27T01:19:52.129Z,100.00
2018-01-27T01:22:20.005Z,100.00
2018-01-27T01:24:47.896Z,100.00
2018-01-27T01:27:16.014Z,100.00
2018-01-27T01:29:43.962Z,100.00
2018-01-27T01:32:11.754Z,100.00
2018-01-27T01:34:39.663Z,100.00
2018-01-27T01:37:07.685Z,100.00
2018-01-27T01:39:35.503Z,100.00
2018-01-27T01:42:03.404Z,100.00
2018-01-27T01:44:31.215Z,100.00
2018-01-27T01:46:59.079Z,100.00
2018-01-27T01:49:27.092Z,100.00
2018-01-27T01:51:54.984Z,100.00
2018-01-27T01:54:22.887Z,100.00
2018-01-27T01:56:50.784Z,100.00
2018-01-27T01:59:18.705Z,100.00
2018-01-27T02:01:46.482Z,100.00
2018-01-27T02:04:14.382Z,100.00
2018-01-27T02:06:42.242Z,100.00
2018-01-27T02:09:10.091Z,100.00
2018-01-27T02:11:37.966Z,100.00
2018-01-27T02:14:05.881Z,100.00
2018-01-27T02:16:33.680Z,100.00
2018-01-27T02:19:01.514Z,100.00
2018-01-27T02:21:29.423Z,100.00
2018-01-27T02:23:57.335Z,100.00
2018-01-27T02:26:25.226Z,100.00
2018-01-27T02:28:53.171Z,100.00
2018-01-27T02:31:21.075Z,100.00
2018-01-27T02:33:48.988Z,100.00
2018-01-27T02:36:16.781Z,100.00
2018-01-27T02:38:44.673Z,100.00
2018-01-27T02:41:12.592Z,100.00
2018-01-27T02:43:40.513Z,100.00
2018-01-27T02:46:08.395Z,100.00
2018-01-27T02:48:36.254Z,100.00
2018-01-27T02:51:04.061Z,100.00
2018-01-27T02:53:31.953Z,100.00
2018-01-27T02:55:59.914Z,100.00
2018-01-27T02:58:27.841Z,100.00
2018-01-27T03:00:55.781Z,100.00
2018-01-27T03:03:23.666Z,100.00
2018-01-27T03:05:51.602Z,100.00
2018-01-27T03:08:19.488Z,100.00
2018-01-27T03:10:47.394Z,100.00
2018-01-27T03:13:15.269Z,100.00
2018-01-27T03:15:43.067Z,100.00
2018-01-27T03:18:10.965Z,100.00
2018-01-27T03:20:38.878Z,100.00
2018-01-27T03:23:06.745Z,100.00
2018-01-27T03:25:34.678Z,100.00
2018-01-27T03:28:02.618Z,100.00
2018-01-27T03:30:30.520Z,100.00
2018-01-27T03:32:58.442Z,100.00
2018-01-27T03:35:26.250Z,100.00
2018-01-27T03:37:54.114Z,100.00
2018-01-27T03:40:21.972Z,100.00
2018-01-27T03:42:49.940Z,100.00
2018-01-27T03:45:17.755Z,100.00
2018-01-27T03:47:45.663Z,100.00
2018-01-27T03:50:13.505Z,100.00
2018-01-27T03:52:41.263Z,100.00
2018-01-27T03:55:09.178Z,100.00
2018-01-27T03:57:37.046Z,100.00
2018-01-27T04:00:04.952Z,100.00
2018-01-27T04:02:32.727Z,100.00
2018-01-27T04:05:00.755Z,100.00
2018-01-27T04:07:28.622Z,100.00
2018-01-27T04:09:56.564Z,100.00
2018-01-27T04:12:24.346Z,100.00
2018-01-27T04:14:52.286Z,100.00
2018-01-27T04:17:20.155Z,100.00
2018-01-27T04:19:47.984Z,100.00
2018-01-27T04:22:16.562Z,100.00
2018-01-27T04:24:44.512Z,100.00
2018-01-27T04:27:12.382Z,100.00
2018-01-27T04:29:40.350Z,100.00
2018-01-27T04:32:08.113Z,100.00
2018-01-27T04:34:35.996Z,100.00
2018-01-27T04:37:03.924Z,100.00
2018-01-27T04:39:31.786Z,100.00
2018-01-27T04:41:59.626Z,100.00
2018-01-27T04:44:27.511Z,100.00
2018-01-27T04:46:55.429Z,100.00
2018-01-27T04:49:23.204Z,100.00
2018-01-27T04:51:51.025Z,100.00
2018-01-27T04:54:18.886Z,100.00
2018-01-27T04:56:46.797Z,100.00
2018-01-27T04:59:14.653Z,100.00
2018-01-27T05:01:42.454Z,100.00
2018-01-27T05:04:10.311Z,100.00
2018-01-27T05:06:38.209Z,100.00
2018-01-27T05:09:05.970Z,100.00
2018-01-27T05:11:33.912Z,100.00
2018-01-27T05:14:01.787Z,100.00
2018-01-27T05:16:29.694Z,100.00
2018-01-27T05:18:57.457Z,100.00
2018-01-27T05:21:25.386Z,100.00
2018-01-27T05:23:53.262Z,100.00
2018-01-27T05:26:21.195Z,100.00
2018-01-27T05:28:49.069Z,100.00
2018-01-27T05:31:17.098Z,100.00
2018-01-27T05:33:44.843Z,100.00
2018-01-27T05:36:12.754Z,100.00
2018-01-27T05:38:40.513Z,100.00
2018-01-27T05:41:08.449Z,100.00
2018-01-27T05:43:36.370Z,100.00
2018-01-27T05:46:04.202Z,100.00
2018-01-27T05:48:31.968Z,100.00
2018-01-27T05:50:59.904Z,100.00
2018-01-27T05:53:27.767Z,100.00
2018-01-27T05:55:55.759Z,100.00
2018-01-27T05:58:23.708Z,100.00
2018-01-27T06:00:51.550Z,100.00
2018-01-27T06:03:19.436Z,100.00
2018-01-27T06:05:47.260Z,100.00
2018-01-27T06:08:15.218Z,100.00
2018-01-27T06:10:43.072Z,100.00
2018-01-27T06:13:10.944Z,100.00
2018-01-27T06:15:38.873Z,100.00
2018-01-27T06:18:06.775Z,100.00
2018-01-27T06:20:34.662Z,100.00
2018-01-27T06:23:02.569Z,100.00
2018-01-27T06:25:30.358Z,100.00
2018-01-27T06:27:58.301Z,100.00
2018-01-27T06:30:26.149Z,100.00
2018-01-27T06:32:54.122Z,100.00
2018-01-27T06:35:21.989Z,100.00
2018-01-27T06:37:50.004Z,100.00
2018-01-27T06:40:17.891Z,100.00
2018-01-27T06:42:45.768Z,100.00
2018-01-27T06:45:13.647Z,100.00
2018-01-27T06:47:41.557Z,100.00
2018-01-27T06:50:09.425Z,100.00
2018-01-27T06:52:37.217Z,100.00
2018-01-27T06:55:05.041Z,100.00
2018-01-27T06:57:32.955Z,100.00
2018-01-27T07:00:00.819Z,100.00
2018-01-27T07:02:28.617Z,100.00
2018-01-27T07:04:56.495Z,100.00
2018-01-27T07:07:24.453Z,100.00
2018-01-27T07:09:53.397Z,100.00
2018-01-27T07:12:21.355Z,100.00
2018-01-27T07:14:50.285Z,100.00
2018-01-27T07:17:18.103Z,100.00
2018-01-27T07:19:45.998Z,100.00
2018-01-27T07:22:13.941Z,100.00
2018-01-27T07:24:41.725Z,100.00
2018-01-27T07:27:09.524Z,100.00
2018-01-27T07:29:37.450Z,100.00
2018-01-27T07:32:05.385Z,100.00
2018-01-27T07:34:33.244Z,100.00
2018-01-27T07:37:01.229Z,100.00
2018-01-27T07:39:28.985Z,100.00
2018-01-27T07:41:56.873Z,100.00
2018-01-27T07:44:24.926Z,100.00
2018-01-27T07:46:53.215Z,100.00
2018-01-27T07:49:21.088Z,100.00
2018-01-27T07:51:49.113Z,100.00
2018-01-27T07:54:17.118Z,100.00
2018-01-27T07:56:45.223Z,100.00
2018-01-27T07:59:13.165Z,100.00
2018-01-27T08:01:41.014Z,100.00
2018-01-27T08:04:08.896Z,100.00
2018-01-27T08:06:36.718Z,100.00
2018-01-27T08:09:04.770Z,100.00
2018-01-27T08:11:32.712Z,100.00
2018-01-27T08:14:00.613Z,100.00
2018-01-27T08:16:28.514Z,100.00
2018-01-27T08:18:56.510Z,100.00
2018-01-27T08:21:24.269Z,100.00
2018-01-27T08:23:52.111Z,100.00
2018-01-27T08:26:20.011Z,100.00
2018-01-27T08:28:47.924Z,100.00
2018-01-27T08:31:15.686Z,100.00
2018-01-27T08:33:43.537Z,100.00
2018-01-27T08:36:12.373Z,100.00
2018-01-27T08:38:40.285Z,100.00
2018-01-27T08:41:08.045Z,100.00
2018-01-27T08:43:35.997Z,100.00
2018-01-27T08:46:03.890Z,100.00
2018-01-27T08:48:31.837Z,100.00
2018-01-27T08:50:59.645Z,100.00
2018-01-27T08:53:27.481Z,100.00
2018-01-27T08:55:55.355Z,100.00
2018-01-27T08:58:23.177Z,100.00
2018-01-27T09:00:50.966Z,100.00
2018-01-27T09:03:18.808Z,100.00
2018-01-27T09:05:46.582Z,100.00
2018-01-27T09:08:14.414Z,100.00
2018-01-27T09:10:42.171Z,100.00
2018-01-27T09:13:09.986Z,100.00
2018-01-27T09:15:37.761Z,100.00
2018-01-27T09:18:05.552Z,100.00
2018-01-27T09:20:33.342Z,100.00
2018-01-27T09:23:01.141Z,100.00
2018-01-27T09:25:28.890Z,100.00
2018-01-27T09:27:56.694Z,100.00
2018-01-27T09:30:24.476Z,100.00
2018-01-27T09:32:52.295Z,100.00
2018-01-27T09:35:20.069Z,100.00
2018-01-27T09:37:47.891Z,100.00
2018-01-27T09:40:15.656Z,100.00
2018-01-27T09:42:43.495Z,100.00
2018-01-27T09:45:11.276Z,100.00
2018-01-27T09:47:39.091Z,100.00
2018-01-27T09:50:06.958Z,100.00
2018-01-27T09:52:34.731Z,100.00
2018-01-27T09:55:02.554Z,100.00
2018-01-27T09:57:30.307Z,100.00
2018-01-27T09:59:58.182Z,100.00
2018-01-27T10:02:25.930Z,100.00
2018-01-27T10:04:53.733Z,100.00
2018-01-27T10:07:21.478Z,100.00
2018-01-27T10:09:49.338Z,100.00
2018-01-27T10:12:17.095Z,100.00
2018-01-27T10:14:44.874Z,99.65
2018-01-27T10:17:12.623Z,98.94
2018-01-27T10:19:40.440Z,98.37
2018-01-27T10:22:08.205Z,97.44
2018-01-27T10:24:36.035Z,96.94
2018-01-27T10:27:03.797Z,96.44
2018-01-27T10:29:31.610Z,96.64
2018-01-27T10:31:59.377Z,97.04
2018-01-27T10:34:27.178Z,96.80
2018-01-27T10:36:54.982Z,96.87
2018-01-27T10:39:22.774Z,96.56
2018-01-27T10:41:50.563Z,96.49
2018-01-27T10:44:18.377Z,96.52
2018-01-27T10:46:46.154Z,95.95
2018-01-27T10:49:14.021Z,95.82
2018-01-27T10:51:41.821Z,95.75
2018-01-27T10:54:09.620Z,95.67
2018-01-27T10:56:37.374Z,95.00
2018-01-27T10:59:07.831Z,94.01
2018-01-27T11:01:35.825Z,94.18
2018-01-27T11:04:03.764Z,94.46
2018-01-27T11:06:31.519Z,94.31
2018-01-27T11:08:59.343Z,94.30
2018-01-27T11:11:27.082Z,94.54
2018-01-27T11:13:54.900Z,94.95
2018-01-27T11:16:22.742Z,93.86
2018-01-27T11:18:50.583Z,93.65
2018-01-27T11:21:18.349Z,93.41
2018-01-27T11:23:46.178Z,93.01
2018-01-27T11:26:13.942Z,92.65
2018-01-27T11:28:41.758Z,92.67
2018-01-27T11:31:09.584Z,92.25
2018-01-27T11:33:37.361Z,91.95
2018-01-27T11:36:06.395Z,92.36
2018-01-27T11:38:34.214Z,92.46
2018-01-27T11:41:02.103Z,92.44
2018-01-27T11:43:29.889Z,92.74
2018-01-27T11:45:57.746Z,92.84
2018-01-27T11:48:25.761Z,93.29
2018-01-27T11:50:53.594Z,93.72
2018-01-27T11:53:21.419Z,94.15
2018-01-27T11:55:49.310Z,94.61
2018-01-27T11:58:17.090Z,94.88
2018-01-27T12:00:44.917Z,94.94
2018-01-27T12:03:12.734Z,95.15
2018-01-27T12:05:40.541Z,95.56
2018-01-27T12:08:08.298Z,95.77
2018-01-27T12:10:36.130Z,95.82
2018-01-27T12:13:03.886Z,95.80
2018-01-27T12:15:31.739Z,95.94
2018-01-27T12:17:59.538Z,96.04
2018-01-27T12:20:27.390Z,96.26
2018-01-27T12:22:55.167Z,96.57
2018-01-27T12:25:22.977Z,96.83
2018-01-27T12:27:50.774Z,96.69
2018-01-27T12:30:27.096Z,96.79
2018-01-27T12:32:55.148Z,96.73
2018-01-27T12:35:22.954Z,96.65
2018-01-27T12:37:50.743Z,96.57
2018-01-27T12:40:18.573Z,96.10
2018-01-27T12:42:46.356Z,95.83
2018-01-27T12:45:14.182Z,95.42
2018-01-27T12:47:41.978Z,95.25
2018-01-27T12:50:09.833Z,95.52
2018-01-27T12:52:37.613Z,94.96
2018-01-27T12:55:05.406Z,94.64
2018-01-27T12:57:33.163Z,94.72
2018-01-27T13:00:00.956Z,94.93
2018-01-27T13:02:28.711Z,95.25
2018-01-27T13:04:56.527Z,95.50
2018-01-27T13:07:24.261Z,95.59
2018-01-27T13:09:52.095Z,95.66
2018-01-27T13:12:19.854Z,95.95
2018-01-27T13:14:47.662Z,96.04
2018-01-27T13:17:15.440Z,95.82
2018-01-27T13:19:43.288Z,95.68
2018-01-27T13:22:11.188Z,95.51
2018-01-27T13:24:39.061Z,95.97
2018-01-27T13:27:06.884Z,96.40
2018-01-27T13:29:34.653Z,96.54
2018-01-27T13:32:02.548Z,96.71
2018-01-27T13:34:30.334Z,96.67
2018-01-27T13:36:58.191Z,96.49
2018-01-27T13:39:25.949Z,96.34
2018-01-27T13:41:53.786Z,96.25
2018-01-27T13:44:21.559Z,96.12
2018-01-27T13:46:49.381Z,95.55
2018-01-27T13:49:17.140Z,95.38
2018-01-27T13:51:45.893Z,95.44
2018-01-27T13:54:13.694Z,95.27
2018-01-27T13:56:41.581Z,94.98
2018-01-27T13:59:09.385Z,94.71
2018-01-27T14:01:38.128Z,94.68
2018-01-27T14:04:13.575Z,94.83
2018-01-27T14:06:41.427Z,94.72
2018-01-27T14:09:09.188Z,94.44
2018-01-27T14:11:37.025Z,94.34
2018-01-27T14:14:04.905Z,94.10
2018-01-27T14:16:32.729Z,94.25
2018-01-27T14:19:00.541Z,94.20
2018-01-27T14:21:28.393Z,93.83
2018-01-27T14:23:56.464Z,93.72
2018-01-27T14:26:24.291Z,93.65
2018-01-27T14:28:52.097Z,93.68
2018-01-27T14:31:19.955Z,93.94
2018-01-27T14:33:47.709Z,94.17
2018-01-27T14:36:15.535Z,94.21
2018-01-27T14:38:43.303Z,94.31
2018-01-27T14:41:11.072Z,94.35
2018-01-27T14:43:38.830Z,94.40
2018-01-27T14:46:06.647Z,94.61
2018-01-27T14:48:34.402Z,94.67
2018-01-27T14:51:02.289Z,94.84
2018-01-27T14:53:30.077Z,94.97
2018-01-27T14:55:57.959Z,95.04
2018-01-27T14:58:25.767Z,95.27
2018-01-27T15:00:53.567Z,95.59
2018-01-27T15:03:21.329Z,95.87
2018-01-27T15:05:49.167Z,96.13
2018-01-27T15:08:16.918Z,96.35
2018-01-27T15:10:44.734Z,96.54
2018-01-27T15:13:12.475Z,96.77
2018-01-27T15:15:40.267Z,96.98
2018-01-27T15:18:08.087Z,97.10
2018-01-27T15:20:35.838Z,97.17
2018-01-27T15:23:03.690Z,97.26
2018-01-27T15:25:31.454Z,97.46
2018-01-27T15:27:59.258Z,97.54
2018-01-27T15:30:27.005Z,97.42
2018-01-27T15:32:54.810Z,97.08
2018-01-27T15:35:22.618Z,96.91
2018-01-27T15:37:50.540Z,96.78
2018-01-27T15:40:18.423Z,96.77
2018-01-27T15:42:46.254Z,96.80
2018-01-27T15:45:14.120Z,96.97
2018-01-27T15:47:42.071Z,97.31
2018-01-27T15:50:09.982Z,97.43
2018-01-27T15:52:37.771Z,97.50
2018-01-27T15:55:05.654Z,97.24
2018-01-27T15:57:33.578Z,97.20
2018-01-27T16:00:01.453Z,97.43
2018-01-27T16:02:29.379Z,97.39
2018-01-27T16:04:57.249Z,97.26
2018-01-27T16:07:25.223Z,97.19
2018-01-27T16:09:53.120Z,97.26
2018-01-27T16:12:21.059Z,97.07
2018-01-27T16:14:48.935Z,97.05
2018-01-27T16:17:16.934Z,97.30
2018-01-27T16:19:44.681Z,97.60
2018-01-27T16:22:12.625Z,97.40
2018-01-27T16:24:40.533Z,97.44
2018-01-27T16:27:08.450Z,97.23
2018-01-27T16:29:36.319Z,97.24
2018-01-27T16:32:04.183Z,97.18
2018-01-27T16:34:31.981Z,97.25
2018-01-27T16:36:59.936Z,97.20
2018-01-27T16:39:27.770Z,97.11
2018-01-27T16:41:55.687Z,97.16
2018-01-27T16:44:23.539Z,97.20
2018-01-27T16:46:51.672Z,97.47
2018-01-27T16:49:19.573Z,97.42
2018-01-27T16:51:47.534Z,97.54
2018-01-27T16:54:15.398Z,97.68
2018-01-27T16:56:43.391Z,97.50
2018-01-27T16:59:11.282Z,97.23
2018-01-27T17:01:39.157Z,97.21
2018-01-27T17:04:07.076Z,96.85
2018-01-27T17:06:34.827Z,96.09
2018-01-27T17:09:02.770Z,96.25
2018-01-27T17:11:30.997Z,96.14
2018-01-27T17:13:58.948Z,95.30
2018-01-27T17:16:26.840Z,94.98
2018-01-27T17:18:54.748Z,94.83
2018-01-27T17:21:22.667Z,94.57
2018-01-27T17:23:50.608Z,94.93
2018-01-27T17:26:18.479Z,94.71
2018-01-27T17:28:46.377Z,94.46
2018-01-27T17:31:14.245Z,94.55
2018-01-27T17:33:42.189Z,94.83
2018-01-27T17:36:10.064Z,95.11
2018-01-27T17:38:38.110Z,95.26
2018-01-27T17:41:06.001Z,95.13
2018-01-27T17:43:33.942Z,95.11
2018-01-27T17:46:01.845Z,95.04
2018-01-27T17:48:29.820Z,94.47
2018-01-27T17:50:57.707Z,94.69
2018-01-27T17:53:25.674Z,94.13
2018-01-27T17:55:53.535Z,94.12
2018-01-27T17:58:21.506Z,93.85
2018-01-27T18:00:49.281Z,93.94
2018-01-27T18:03:17.306Z,94.29
2018-01-27T18:05:45.166Z,94.52
2018-01-27T18:08:13.107Z,94.62
2018-01-27T18:10:40.961Z,94.66
2018-01-27T18:13:08.870Z,94.88
2018-01-27T18:15:36.763Z,94.84
2018-01-27T18:18:04.796Z,94.90
2018-01-27T18:20:32.670Z,94.82
2018-01-27T18:23:00.616Z,94.89
2018-01-27T18:25:28.533Z,95.05
2018-01-27T18:27:56.446Z,95.11
2018-01-27T18:30:24.347Z,95.05
2018-01-27T18:32:52.292Z,95.13
2018-01-27T18:35:20.203Z,94.86
2018-01-27T18:37:48.126Z,94.91
2018-01-27T18:40:16.046Z,94.66
2018-01-27T18:42:43.964Z,94.60
2018-01-27T18:45:11.848Z,94.39
2018-01-27T18:47:39.735Z,94.58
2018-01-27T18:50:07.642Z,94.71
2018-01-27T18:52:35.494Z,94.52
2018-01-27T18:55:03.437Z,94.37
2018-01-27T18:57:31.450Z,94.52
2018-01-27T18:59:59.362Z,94.43
2018-01-27T19:02:27.148Z,94.41
2018-01-27T19:04:55.068Z,94.49
2018-01-27T19:07:22.926Z,94.82
2018-01-27T19:09:50.855Z,94.71
2018-01-27T19:12:18.601Z,94.75
2018-01-27T19:14:46.467Z,94.43
2018-01-27T19:17:14.338Z,94.27
2018-01-27T19:19:42.261Z,94.11
2018-01-27T19:22:10.117Z,93.95
2018-01-27T19:24:38.077Z,94.16
2018-01-27T19:27:05.924Z,94.09
2018-01-27T19:29:33.858Z,94.09
2018-01-27T19:32:01.760Z,94.37
2018-01-27T19:34:29.710Z,94.20
2018-01-27T19:36:57.580Z,94.27
2018-01-27T19:39:25.550Z,94.06
2018-01-27T19:41:53.422Z,93.93
2018-01-27T19:44:21.331Z,94.16
2018-01-27T19:46:49.255Z,93.97
2018-01-27T19:49:17.203Z,93.73
2018-01-27T19:51:45.140Z,93.56
2018-01-27T19:54:12.956Z,93.34
2018-01-27T19:56:40.816Z,93.39
2018-01-27T19:59:08.745Z,93.45
2018-01-27T20:01:36.489Z,93.49
2018-01-27T20:04:04.436Z,93.49
2018-01-27T20:06:32.310Z,93.53
2018-01-27T20:09:00.226Z,94.04
2018-01-27T20:11:28.086Z,93.57
2018-01-27T20:13:55.991Z,93.62
2018-01-27T20:16:23.889Z,93.88
2018-01-27T20:18:51.811Z,93.57
2018-01-27T20:21:19.706Z,93.65
2018-01-27T20:23:47.646Z,93.57
2018-01-27T20:26:15.519Z,93.40
2018-01-27T20:28:43.409Z,93.02
2018-01-27T20:31:11.159Z,93.23
2018-01-27T20:33:39.114Z,93.43
2018-01-27T20:36:07.048Z,93.58
2018-01-27T20:38:35.005Z,93.81
2018-01-27T20:41:02.938Z,93.76
2018-01-27T20:43:30.826Z,93.88
2018-01-27T20:45:58.818Z,93.90
2018-01-27T20:48:26.735Z,93.87
2018-01-27T20:50:54.709Z,93.80
2018-01-27T20:53:22.686Z,93.85
2018-01-27T20:55:50.670Z,93.53
2018-01-27T20:58:18.564Z,93.86
2018-01-27T21:00:46.555Z,93.43
2018-01-27T21:03:14.471Z,92.63
2018-01-27T21:05:42.396Z,92.53
2018-01-27T21:08:10.258Z,92.52
2018-01-27T21:10:38.187Z,92.47
2018-01-27T21:13:06.040Z,92.73
2018-01-27T21:15:33.966Z,92.70
2018-01-27T21:18:01.846Z,93.08
2018-01-27T21:20:29.762Z,93.02
2018-01-27T21:22:57.603Z,93.05
2018-01-27T21:25:25.602Z,92.95
2018-01-27T21:27:53.455Z,92.82
2018-01-27T21:30:21.391Z,92.68
2018-01-27T21:32:49.315Z,92.18
2018-01-27T21:35:17.284Z,92.04
2018-01-27T21:37:45.183Z,92.07
2018-01-27T21:40:13.238Z,91.57
2018-01-27T21:42:41.146Z,91.21
2018-01-27T21:45:09.054Z,90.60
2018-01-27T21:47:36.942Z,90.25
2018-01-27T21:50:04.844Z,89.65
2018-01-27T21:52:32.736Z,89.74
2018-01-27T21:55:00.674Z,89.33
2018-01-27T21:57:28.538Z,89.67
2018-01-27T21:59:56.439Z,88.59
2018-01-27T22:02:24.285Z,88.71
2018-01-27T22:04:52.257Z,88.45
2018-01-27T22:07:20.130Z,88.21
2018-01-27T22:09:49.119Z,88.52
2018-01-27T22:12:16.979Z,88.16
2018-01-27T22:14:44.906Z,88.08
2018-01-27T22:17:12.764Z,88.45
2018-01-27T22:19:40.613Z,88.09
2018-01-27T22:22:08.527Z,88.08
2018-01-27T22:24:36.306Z,88.01
2018-01-27T22:27:04.296Z,87.97
2018-01-27T22:29:32.186Z,87.75
2018-01-27T22:32:00.196Z,87.90
2018-01-27T22:34:28.096Z,88.08
2018-01-27T22:36:55.997Z,88.02
2018-01-27T22:39:23.894Z,87.92
2018-01-27T22:41:51.788Z,87.67
2018-01-27T22:44:19.637Z,87.67
2018-01-27T22:46:47.534Z,87.46
2018-01-27T22:49:15.387Z,86.89
2018-01-27T22:51:43.282Z,87.19
2018-01-27T22:54:11.145Z,87.11
2018-01-27T22:56:39.074Z,86.98
2018-01-27T22:59:06.993Z,86.77
2018-01-27T23:01:34.786Z,86.56
2018-01-27T23:04:02.563Z,86.38
2018-01-27T23:06:31.247Z,86.31
2018-01-27T23:08:59.053Z,85.89
2018-01-27T23:11:26.898Z,85.98
2018-01-27T23:13:54.657Z,86.15
2018-01-27T23:16:22.514Z,86.06
2018-01-27T23:18:50.350Z,86.02
2018-01-27T23:21:18.178Z,86.40
2018-01-27T23:23:46.034Z,86.23
2018-01-27T23:26:13.803Z,85.67
2018-01-27T23:28:41.575Z,85.94
2018-01-27T23:31:09.384Z,85.88
2018-01-27T23:33:37.206Z,85.57
2018-01-27T23:36:04.985Z,85.09
2018-01-27T23:38:32.773Z,85.26
2018-01-27T23:41:00.570Z,84.29
2018-01-27T23:43:28.464Z,84.30
2018-01-27T23:45:56.295Z,84.77
2018-01-27T23:48:24.039Z,84.78
2018-01-27T23:50:51.941Z,84.13
2018-01-27T23:53:19.703Z,84.18
2018-01-27T23:55:47.505Z,84.67
2018-01-27T23:58:15.371Z,85.07
